sensor_id;sensor_type;location;lat;lon;timestamp;P1;durP1;ratioP1;P2;durP2;ratioP2
38379;SDS011;38377;47.418;18.882;2023-06-22T00:00:56;17.25;;;9.48;;
38379;SDS011;38377;47.418;18.882;2023-06-22T00:03:23;11.93;;;8.38;;
38379;SDS011;38377;47.418;18.882;2023-06-22T00:05:49;11.43;;;9.20;;
38379;SDS011;38377;47.418;18.882;2023-06-22T00:08:16;12.77;;;9.07;;
38379;SDS011;38377;47.418;18.882;2023-06-22T00:10:43;13.23;;;9.32;;
38379;SDS011;38377;47.418;18.882;2023-06-22T00:13:09;16.83;;;9.38;;
38379;SDS011;38377;47.418;18.882;2023-06-22T00:15:36;16.30;;;9.93;;
38379;SDS011;38377;47.418;18.882;2023-06-22T00:18:03;16.85;;;9.20;;
38379;SDS011;38377;47.418;18.882;2023-06-22T00:20:30;17.80;;;9.80;;
38379;SDS011;38377;47.418;18.882;2023-06-22T00:22:57;14.80;;;9.27;;
38379;SDS011;38377;47.418;18.882;2023-06-22T00:25:24;12.40;;;9.68;;
38379;SDS011;38377;47.418;18.882;2023-06-22T00:27:50;17.52;;;10.20;;
38379;SDS011;38377;47.418;18.882;2023-06-22T00:30:16;18.63;;;9.65;;
38379;SDS011;38377;47.418;18.882;2023-06-22T00:32:44;16.40;;;9.57;;
38379;SDS011;38377;47.418;18.882;2023-06-22T00:35:11;14.52;;;9.98;;
38379;SDS011;38377;47.418;18.882;2023-06-22T00:37:37;14.10;;;10.43;;
38379;SDS011;38377;47.418;18.882;2023-06-22T00:40:07;13.95;;;9.98;;
38379;SDS011;38377;47.418;18.882;2023-06-22T00:42:34;13.68;;;9.80;;
38379;SDS011;38377;47.418;18.882;2023-06-22T00:44:59;13.35;;;9.65;;
38379;SDS011;38377;47.418;18.882;2023-06-22T00:47:25;15.68;;;10.65;;
38379;SDS011;38377;47.418;18.882;2023-06-22T00:49:52;14.73;;;10.77;;
38379;SDS011;38377;47.418;18.882;2023-06-22T00:52:19;15.05;;;10.45;;
38379;SDS011;38377;47.418;18.882;2023-06-22T00:54:50;18.05;;;11.05;;
38379;SDS011;38377;47.418;18.882;2023-06-22T00:57:17;13.48;;;9.80;;
38379;SDS011;38377;47.418;18.882;2023-06-22T00:59:47;15.85;;;9.90;;
38379;SDS011;38377;47.418;18.882;2023-06-22T01:02:13;13.20;;;9.68;;
38379;SDS011;38377;47.418;18.882;2023-06-22T01:04:39;15.45;;;10.27;;
38379;SDS011;38377;47.418;18.882;2023-06-22T01:12:22;13.48;;;9.52;;
38379;SDS011;38377;47.418;18.882;2023-06-22T01:14:50;17.83;;;10.88;;
38379;SDS011;38377;47.418;18.882;2023-06-22T01:17:21;16.13;;;10.27;;
38379;SDS011;38377;47.418;18.882;2023-06-22T01:19:50;15.65;;;9.93;;
38379;SDS011;38377;47.418;18.882;2023-06-22T01:22:22;13.93;;;9.73;;
38379;SDS011;38377;47.418;18.882;2023-06-22T01:25:02;17.27;;;9.82;;
38379;SDS011;38377;47.418;18.882;2023-06-22T01:31:06;16.50;;;9.90;;
38379;SDS011;38377;47.418;18.882;2023-06-22T01:33:35;14.07;;;10.02;;
38379;SDS011;38377;47.418;18.882;2023-06-22T01:36:04;14.45;;;10.73;;
38379;SDS011;38377;47.418;18.882;2023-06-22T01:38:31;17.58;;;10.43;;
38379;SDS011;38377;47.418;18.882;2023-06-22T01:40:58;17.00;;;10.40;;
38379;SDS011;38377;47.418;18.882;2023-06-22T01:43:26;18.15;;;11.13;;
38379;SDS011;38377;47.418;18.882;2023-06-22T01:45:53;17.33;;;10.27;;
38379;SDS011;38377;47.418;18.882;2023-06-22T01:48:20;13.50;;;11.13;;
38379;SDS011;38377;47.418;18.882;2023-06-22T01:50:47;19.38;;;11.68;;
38379;SDS011;38377;47.418;18.882;2023-06-22T01:53:13;18.35;;;10.30;;
38379;SDS011;38377;47.418;18.882;2023-06-22T01:55:39;14.10;;;10.77;;
38379;SDS011;38377;47.418;18.882;2023-06-22T01:58:04;12.90;;;10.73;;
38379;SDS011;38377;47.418;18.882;2023-06-22T02:00:31;14.70;;;10.93;;
38379;SDS011;38377;47.418;18.882;2023-06-22T02:03:21;18.08;;;10.80;;
38379;SDS011;38377;47.418;18.882;2023-06-22T02:06:24;14.05;;;10.90;;
38379;SDS011;38377;47.418;18.882;2023-06-22T02:08:47;14.10;;;10.15;;
38379;SDS011;38377;47.418;18.882;2023-06-22T02:11:20;16.27;;;11.10;;
38379;SDS011;38377;47.418;18.882;2023-06-22T02:13:47;12.10;;;10.50;;
38379;SDS011;38377;47.418;18.882;2023-06-22T02:16:14;18.42;;;10.38;;
38379;SDS011;38377;47.418;18.882;2023-06-22T02:18:48;15.18;;;11.38;;
38379;SDS011;38377;47.418;18.882;2023-06-22T02:21:18;14.32;;;10.85;;
38379;SDS011;38377;47.418;18.882;2023-06-22T02:23:44;18.50;;;11.50;;
38379;SDS011;38377;47.418;18.882;2023-06-22T02:26:10;17.63;;;11.70;;
38379;SDS011;38377;47.418;18.882;2023-06-22T02:28:36;20.00;;;12.25;;
38379;SDS011;38377;47.418;18.882;2023-06-22T02:31:01;15.48;;;10.73;;
38379;SDS011;38377;47.418;18.882;2023-06-22T02:33:27;16.75;;;10.55;;
38379;SDS011;38377;47.418;18.882;2023-06-22T02:35:53;17.55;;;10.05;;
38379;SDS011;38377;47.418;18.882;2023-06-22T02:38:19;12.93;;;9.18;;
38379;SDS011;38377;47.418;18.882;2023-06-22T02:40:45;14.40;;;8.70;;
38379;SDS011;38377;47.418;18.882;2023-06-22T02:43:11;14.10;;;8.73;;
38379;SDS011;38377;47.418;18.882;2023-06-22T02:45:37;12.05;;;8.63;;
38379;SDS011;38377;47.418;18.882;2023-06-22T02:48:02;14.18;;;7.93;;
38379;SDS011;38377;47.418;18.882;2023-06-22T02:50:28;11.80;;;8.23;;
38379;SDS011;38377;47.418;18.882;2023-06-22T02:52:54;13.43;;;8.63;;
38379;SDS011;38377;47.418;18.882;2023-06-22T02:55:20;11.50;;;7.90;;
38379;SDS011;38377;47.418;18.882;2023-06-22T02:57:45;14.85;;;8.13;;
38379;SDS011;38377;47.418;18.882;2023-06-22T03:00:13;11.75;;;7.90;;
38379;SDS011;38377;47.418;18.882;2023-06-22T03:02:43;11.88;;;7.97;;
38379;SDS011;38377;47.418;18.882;2023-06-22T03:05:10;12.95;;;8.00;;
38379;SDS011;38377;47.418;18.882;2023-06-22T03:07:38;17.17;;;7.75;;
38379;SDS011;38377;47.418;18.882;2023-06-22T03:10:08;14.75;;;8.20;;
38379;SDS011;38377;47.418;18.882;2023-06-22T03:12:34;13.90;;;7.88;;
38379;SDS011;38377;47.418;18.882;2023-06-22T03:15:00;14.45;;;8.02;;
38379;SDS011;38377;47.418;18.882;2023-06-22T03:17:26;14.25;;;8.35;;
38379;SDS011;38377;47.418;18.882;2023-06-22T03:19:52;13.90;;;7.55;;
38379;SDS011;38377;47.418;18.882;2023-06-22T03:22:17;12.63;;;7.43;;
38379;SDS011;38377;47.418;18.882;2023-06-22T03:24:43;15.75;;;7.32;;
38379;SDS011;38377;47.418;18.882;2023-06-22T03:27:09;15.65;;;8.40;;
38379;SDS011;38377;47.418;18.882;2023-06-22T03:29:34;12.60;;;7.60;;
38379;SDS011;38377;47.418;18.882;2023-06-22T03:32:00;19.15;;;8.55;;
38379;SDS011;38377;47.418;18.882;2023-06-22T03:34:26;10.75;;;7.63;;
38379;SDS011;38377;47.418;18.882;2023-06-22T03:36:52;12.10;;;8.20;;
38379;SDS011;38377;47.418;18.882;2023-06-22T03:39:18;14.35;;;8.73;;
38379;SDS011;38377;47.418;18.882;2023-06-22T03:41:44;19.55;;;10.35;;
38379;SDS011;38377;47.418;18.882;2023-06-22T03:44:10;17.42;;;10.18;;
38379;SDS011;38377;47.418;18.882;2023-06-22T03:46:37;16.10;;;8.90;;
38379;SDS011;38377;47.418;18.882;2023-06-22T03:49:03;14.93;;;8.38;;
38379;SDS011;38377;47.418;18.882;2023-06-22T03:51:29;15.20;;;8.45;;
38379;SDS011;38377;47.418;18.882;2023-06-22T03:53:55;12.85;;;7.90;;
38379;SDS011;38377;47.418;18.882;2023-06-22T03:56:21;12.60;;;8.23;;
38379;SDS011;38377;47.418;18.882;2023-06-22T03:58:46;11.57;;;7.80;;
38379;SDS011;38377;47.418;18.882;2023-06-22T04:01:12;13.95;;;7.72;;
38379;SDS011;38377;47.418;18.882;2023-06-22T04:03:38;13.93;;;8.35;;
38379;SDS011;38377;47.418;18.882;2023-06-22T04:06:04;11.98;;;7.40;;
38379;SDS011;38377;47.418;18.882;2023-06-22T04:08:30;12.63;;;7.20;;
38379;SDS011;38377;47.418;18.882;2023-06-22T04:10:55;12.48;;;7.80;;
38379;SDS011;38377;47.418;18.882;2023-06-22T04:13:21;11.13;;;7.40;;
38379;SDS011;38377;47.418;18.882;2023-06-22T04:15:47;13.85;;;7.78;;
38379;SDS011;38377;47.418;18.882;2023-06-22T04:18:12;20.40;;;10.20;;
38379;SDS011;38377;47.418;18.882;2023-06-22T04:20:38;15.48;;;8.75;;
38379;SDS011;38377;47.418;18.882;2023-06-22T04:23:04;16.27;;;8.05;;
38379;SDS011;38377;47.418;18.882;2023-06-22T04:25:30;12.98;;;8.50;;
38379;SDS011;38377;47.418;18.882;2023-06-22T04:27:55;12.60;;;8.20;;
38379;SDS011;38377;47.418;18.882;2023-06-22T04:30:21;14.00;;;8.27;;
38379;SDS011;38377;47.418;18.882;2023-06-22T04:32:47;13.15;;;7.05;;
38379;SDS011;38377;47.418;18.882;2023-06-22T04:35:21;10.98;;;7.07;;
38379;SDS011;38377;47.418;18.882;2023-06-22T04:37:50;15.02;;;7.38;;
38379;SDS011;38377;47.418;18.882;2023-06-22T04:40:19;12.93;;;6.68;;
38379;SDS011;38377;47.418;18.882;2023-06-22T04:42:46;10.45;;;6.63;;
38379;SDS011;38377;47.418;18.882;2023-06-22T04:45:17;12.07;;;5.72;;
38379;SDS011;38377;47.418;18.882;2023-06-22T04:47:43;10.23;;;5.20;;
38379;SDS011;38377;47.418;18.882;2023-06-22T04:50:10;10.30;;;5.57;;
38379;SDS011;38377;47.418;18.882;2023-06-22T04:52:36;9.15;;;5.43;;
38379;SDS011;38377;47.418;18.882;2023-06-22T04:55:02;9.38;;;5.03;;
38379;SDS011;38377;47.418;18.882;2023-06-22T04:57:28;10.50;;;5.65;;
38379;SDS011;38377;47.418;18.882;2023-06-22T05:00:00;10.70;;;5.53;;
38379;SDS011;38377;47.418;18.882;2023-06-22T05:02:40;12.52;;;5.15;;
38379;SDS011;38377;47.418;18.882;2023-06-22T05:05:13;13.07;;;6.95;;
38379;SDS011;38377;47.418;18.882;2023-06-22T05:07:42;8.75;;;5.40;;
38379;SDS011;38377;47.418;18.882;2023-06-22T05:10:10;8.57;;;5.60;;
38379;SDS011;38377;47.418;18.882;2023-06-22T05:12:37;9.57;;;5.75;;
38379;SDS011;38377;47.418;18.882;2023-06-22T05:15:04;12.02;;;5.70;;
38379;SDS011;38377;47.418;18.882;2023-06-22T05:17:31;9.45;;;5.07;;
38379;SDS011;38377;47.418;18.882;2023-06-22T05:19:56;11.50;;;5.25;;
38379;SDS011;38377;47.418;18.882;2023-06-22T05:22:22;8.90;;;4.88;;
38379;SDS011;38377;47.418;18.882;2023-06-22T05:24:48;6.80;;;4.57;;
38379;SDS011;38377;47.418;18.882;2023-06-22T05:27:13;8.15;;;4.18;;
38379;SDS011;38377;47.418;18.882;2023-06-22T05:29:39;6.80;;;4.05;;
38379;SDS011;38377;47.418;18.882;2023-06-22T05:32:05;7.20;;;4.32;;
38379;SDS011;38377;47.418;18.882;2023-06-22T05:34:31;7.80;;;4.05;;
38379;SDS011;38377;47.418;18.882;2023-06-22T05:36:57;10.43;;;4.72;;
38379;SDS011;38377;47.418;18.882;2023-06-22T05:39:26;6.75;;;4.10;;
38379;SDS011;38377;47.418;18.882;2023-06-22T05:41:52;10.43;;;4.80;;
38379;SDS011;38377;47.418;18.882;2023-06-22T05:44:18;11.40;;;4.80;;
38379;SDS011;38377;47.418;18.882;2023-06-22T05:46:44;9.63;;;5.00;;
38379;SDS011;38377;47.418;18.882;2023-06-22T05:49:11;9.73;;;4.85;;
38379;SDS011;38377;47.418;18.882;2023-06-22T05:51:38;8.73;;;4.97;;
38379;SDS011;38377;47.418;18.882;2023-06-22T05:54:03;6.72;;;4.47;;
38379;SDS011;38377;47.418;18.882;2023-06-22T05:56:29;7.43;;;4.82;;
38379;SDS011;38377;47.418;18.882;2023-06-22T05:58:55;6.95;;;4.13;;
38379;SDS011;38377;47.418;18.882;2023-06-22T06:01:20;7.80;;;4.20;;
38379;SDS011;38377;47.418;18.882;2023-06-22T06:03:46;6.80;;;3.70;;
38379;SDS011;38377;47.418;18.882;2023-06-22T06:06:13;11.25;;;3.88;;
38379;SDS011;38377;47.418;18.882;2023-06-22T06:08:39;9.15;;;4.40;;
38379;SDS011;38377;47.418;18.882;2023-06-22T06:11:05;6.47;;;3.78;;
38379;SDS011;38377;47.418;18.882;2023-06-22T06:13:30;8.60;;;4.20;;
38379;SDS011;38377;47.418;18.882;2023-06-22T06:15:56;7.80;;;3.67;;
38379;SDS011;38377;47.418;18.882;2023-06-22T06:18:22;8.43;;;3.15;;
38379;SDS011;38377;47.418;18.882;2023-06-22T06:20:48;5.63;;;3.17;;
38379;SDS011;38377;47.418;18.882;2023-06-22T06:23:14;7.97;;;3.85;;
38379;SDS011;38377;47.418;18.882;2023-06-22T06:25:40;4.85;;;3.25;;
38379;SDS011;38377;47.418;18.882;2023-06-22T06:28:05;11.50;;;3.72;;
38379;SDS011;38377;47.418;18.882;2023-06-22T06:30:31;9.05;;;3.00;;
38379;SDS011;38377;47.418;18.882;2023-06-22T06:32:57;13.13;;;3.50;;
38379;SDS011;38377;47.418;18.882;2023-06-22T06:35:23;6.80;;;3.72;;
38379;SDS011;38377;47.418;18.882;2023-06-22T06:37:49;8.23;;;3.42;;
38379;SDS011;38377;47.418;18.882;2023-06-22T06:40:16;8.65;;;4.28;;
38379;SDS011;38377;47.418;18.882;2023-06-22T06:42:46;9.57;;;3.78;;
38379;SDS011;38377;47.418;18.882;2023-06-22T06:45:15;6.63;;;4.00;;
38379;SDS011;38377;47.418;18.882;2023-06-22T06:47:48;10.63;;;5.40;;
38379;SDS011;38377;47.418;18.882;2023-06-22T06:50:15;8.80;;;4.07;;
38379;SDS011;38377;47.418;18.882;2023-06-22T06:52:41;9.35;;;4.32;;
38379;SDS011;38377;47.418;18.882;2023-06-22T06:55:07;7.13;;;4.28;;
38379;SDS011;38377;47.418;18.882;2023-06-22T06:57:37;7.30;;;3.85;;
38379;SDS011;38377;47.418;18.882;2023-06-22T07:00:05;5.35;;;4.47;;
38379;SDS011;38377;47.418;18.882;2023-06-22T07:02:34;8.25;;;5.28;;
38379;SDS011;38377;47.418;18.882;2023-06-22T07:05:01;8.40;;;4.47;;
38379;SDS011;38377;47.418;18.882;2023-06-22T07:07:29;8.95;;;5.68;;
38379;SDS011;38377;47.418;18.882;2023-06-22T07:09:55;8.50;;;4.93;;
38379;SDS011;38377;47.418;18.882;2023-06-22T07:12:20;7.22;;;4.60;;
38379;SDS011;38377;47.418;18.882;2023-06-22T07:14:46;7.15;;;4.97;;
38379;SDS011;38377;47.418;18.882;2023-06-22T07:17:12;7.47;;;4.75;;
38379;SDS011;38377;47.418;18.882;2023-06-22T07:19:37;6.60;;;5.07;;
38379;SDS011;38377;47.418;18.882;2023-06-22T07:22:03;7.13;;;4.93;;
38379;SDS011;38377;47.418;18.882;2023-06-22T07:24:29;8.73;;;5.05;;
38379;SDS011;38377;47.418;18.882;2023-06-22T07:26:55;8.68;;;5.50;;
38379;SDS011;38377;47.418;18.882;2023-06-22T07:29:24;12.70;;;6.03;;
38379;SDS011;38377;47.418;18.882;2023-06-22T07:31:50;7.40;;;5.65;;
38379;SDS011;38377;47.418;18.882;2023-06-22T07:34:21;6.65;;;5.22;;
38379;SDS011;38377;47.418;18.882;2023-06-22T07:36:47;5.95;;;5.03;;
38379;SDS011;38377;47.418;18.882;2023-06-22T07:39:13;7.25;;;5.10;;
38379;SDS011;38377;47.418;18.882;2023-06-22T07:41:40;7.47;;;5.57;;
38379;SDS011;38377;47.418;18.882;2023-06-22T07:44:08;8.55;;;5.30;;
38379;SDS011;38377;47.418;18.882;2023-06-22T07:46:34;8.63;;;5.82;;
38379;SDS011;38377;47.418;18.882;2023-06-22T07:48:59;6.70;;;5.40;;
38379;SDS011;38377;47.418;18.882;2023-06-22T07:51:26;9.23;;;5.93;;
38379;SDS011;38377;47.418;18.882;2023-06-22T07:53:52;7.18;;;5.30;;
38379;SDS011;38377;47.418;18.882;2023-06-22T07:56:18;8.05;;;6.15;;
38379;SDS011;38377;47.418;18.882;2023-06-22T07:58:45;10.07;;;6.47;;
38379;SDS011;38377;47.418;18.882;2023-06-22T08:01:12;7.25;;;6.00;;
38379;SDS011;38377;47.418;18.882;2023-06-22T08:03:38;8.05;;;6.38;;
38379;SDS011;38377;47.418;18.882;2023-06-22T08:06:04;8.30;;;5.88;;
38379;SDS011;38377;47.418;18.882;2023-06-22T08:08:31;7.78;;;6.13;;
38379;SDS011;38377;47.418;18.882;2023-06-22T08:10:56;10.13;;;6.60;;
38379;SDS011;38377;47.418;18.882;2023-06-22T08:13:22;8.05;;;5.78;;
38379;SDS011;38377;47.418;18.882;2023-06-22T08:15:48;9.32;;;5.93;;
38379;SDS011;38377;47.418;18.882;2023-06-22T08:18:14;8.75;;;6.75;;
38379;SDS011;38377;47.418;18.882;2023-06-22T08:20:41;7.85;;;5.72;;
38379;SDS011;38377;47.418;18.882;2023-06-22T08:23:07;13.77;;;6.95;;
38379;SDS011;38377;47.418;18.882;2023-06-22T08:25:33;9.98;;;6.45;;
38379;SDS011;38377;47.418;18.882;2023-06-22T08:28:00;8.43;;;6.28;;
38379;SDS011;38377;47.418;18.882;2023-06-22T08:30:26;8.43;;;6.30;;
38379;SDS011;38377;47.418;18.882;2023-06-22T08:32:52;8.55;;;6.43;;
38379;SDS011;38377;47.418;18.882;2023-06-22T08:35:19;8.40;;;6.63;;
38379;SDS011;38377;47.418;18.882;2023-06-22T08:37:45;10.27;;;6.38;;
38379;SDS011;38377;47.418;18.882;2023-06-22T08:40:19;8.40;;;6.55;;
38379;SDS011;38377;47.418;18.882;2023-06-22T08:42:45;9.63;;;7.13;;
38379;SDS011;38377;47.418;18.882;2023-06-22T08:45:12;9.20;;;7.10;;
38379;SDS011;38377;47.418;18.882;2023-06-22T08:47:38;11.43;;;7.18;;
38379;SDS011;38377;47.418;18.882;2023-06-22T08:50:06;8.10;;;6.72;;
38379;SDS011;38377;47.418;18.882;2023-06-22T08:52:33;9.68;;;7.82;;
38379;SDS011;38377;47.418;18.882;2023-06-22T08:54:59;8.88;;;6.53;;
38379;SDS011;38377;47.418;18.882;2023-06-22T08:57:25;8.15;;;7.05;;
38379;SDS011;38377;47.418;18.882;2023-06-22T08:59:52;10.32;;;7.28;;
38379;SDS011;38377;47.418;18.882;2023-06-22T09:02:18;9.82;;;7.22;;
38379;SDS011;38377;47.418;18.882;2023-06-22T09:04:45;9.38;;;7.07;;
38379;SDS011;38377;47.418;18.882;2023-06-22T09:07:11;9.10;;;7.10;;
38379;SDS011;38377;47.418;18.882;2023-06-22T09:09:37;9.43;;;7.90;;
38379;SDS011;38377;47.418;18.882;2023-06-22T09:12:03;10.13;;;6.97;;
38379;SDS011;38377;47.418;18.882;2023-06-22T09:14:29;8.82;;;7.90;;
38379;SDS011;38377;47.418;18.882;2023-06-22T09:16:55;10.55;;;7.57;;
38379;SDS011;38377;47.418;18.882;2023-06-22T09:19:20;9.52;;;8.25;;
38379;SDS011;38377;47.418;18.882;2023-06-22T09:22:02;11.35;;;8.45;;
38379;SDS011;38377;47.418;18.882;2023-06-22T09:24:28;10.70;;;7.85;;
38379;SDS011;38377;47.418;18.882;2023-06-22T09:26:54;11.25;;;7.93;;
38379;SDS011;38377;47.418;18.882;2023-06-22T09:29:19;9.82;;;7.30;;
38379;SDS011;38377;47.418;18.882;2023-06-22T09:31:45;11.05;;;8.00;;
38379;SDS011;38377;47.418;18.882;2023-06-22T09:34:11;14.60;;;8.05;;
38379;SDS011;38377;47.418;18.882;2023-06-22T09:36:36;8.65;;;7.72;;
38379;SDS011;38377;47.418;18.882;2023-06-22T09:39:04;10.27;;;7.97;;
38379;SDS011;38377;47.418;18.882;2023-06-22T09:41:31;9.52;;;7.53;;
38379;SDS011;38377;47.418;18.882;2023-06-22T09:43:57;12.70;;;8.30;;
38379;SDS011;38377;47.418;18.882;2023-06-22T09:46:22;11.57;;;8.48;;
38379;SDS011;38377;47.418;18.882;2023-06-22T09:48:50;10.82;;;9.15;;
38379;SDS011;38377;47.418;18.882;2023-06-22T09:51:16;10.85;;;7.97;;
38379;SDS011;38377;47.418;18.882;2023-06-22T09:53:41;9.48;;;7.72;;
38379;SDS011;38377;47.418;18.882;2023-06-22T09:56:07;8.65;;;7.80;;
38379;SDS011;38377;47.418;18.882;2023-06-22T09:58:39;9.63;;;8.48;;
38379;SDS011;38377;47.418;18.882;2023-06-22T10:01:07;9.68;;;8.15;;
38379;SDS011;38377;47.418;18.882;2023-06-22T10:03:33;9.80;;;7.72;;
38379;SDS011;38377;47.418;18.882;2023-06-22T10:05:59;10.65;;;8.60;;
38379;SDS011;38377;47.418;18.882;2023-06-22T10:08:25;10.07;;;8.18;;
38379;SDS011;38377;47.418;18.882;2023-06-22T10:10:50;8.85;;;7.95;;
38379;SDS011;38377;47.418;18.882;2023-06-22T10:13:16;14.77;;;8.10;;
38379;SDS011;38377;47.418;18.882;2023-06-22T10:15:42;9.98;;;8.05;;
38379;SDS011;38377;47.418;18.882;2023-06-22T10:18:07;8.45;;;7.43;;
38379;SDS011;38377;47.418;18.882;2023-06-22T10:20:33;9.18;;;7.80;;
38379;SDS011;38377;47.418;18.882;2023-06-22T10:22:59;10.65;;;7.70;;
38379;SDS011;38377;47.418;18.882;2023-06-22T10:25:25;9.48;;;7.68;;
38379;SDS011;38377;47.418;18.882;2023-06-22T10:27:51;12.48;;;9.20;;
38379;SDS011;38377;47.418;18.882;2023-06-22T10:30:17;9.77;;;8.32;;
38379;SDS011;38377;47.418;18.882;2023-06-22T10:32:42;8.65;;;7.85;;
38379;SDS011;38377;47.418;18.882;2023-06-22T10:35:08;15.18;;;8.57;;
38379;SDS011;38377;47.418;18.882;2023-06-22T10:37:35;13.25;;;8.13;;
38379;SDS011;38377;47.418;18.882;2023-06-22T10:40:01;8.75;;;7.85;;
38379;SDS011;38377;47.418;18.882;2023-06-22T10:42:29;9.85;;;7.97;;
38379;SDS011;38377;47.418;18.882;2023-06-22T10:44:55;11.00;;;7.97;;
38379;SDS011;38377;47.418;18.882;2023-06-22T10:47:21;9.88;;;7.68;;
38379;SDS011;38377;47.418;18.882;2023-06-22T10:49:47;13.05;;;7.90;;
38379;SDS011;38377;47.418;18.882;2023-06-22T10:52:12;8.18;;;7.38;;
38379;SDS011;38377;47.418;18.882;2023-06-22T10:54:38;9.40;;;8.23;;
38379;SDS011;38377;47.418;18.882;2023-06-22T10:57:04;16.08;;;8.20;;
38379;SDS011;38377;47.418;18.882;2023-06-22T10:59:30;11.93;;;8.00;;
38379;SDS011;38377;47.418;18.882;2023-06-22T11:01:56;9.02;;;7.78;;
38379;SDS011;38377;47.418;18.882;2023-06-22T11:04:22;11.90;;;7.65;;
38379;SDS011;38377;47.418;18.882;2023-06-22T11:06:48;9.48;;;8.07;;
38379;SDS011;38377;47.418;18.882;2023-06-22T11:09:15;10.40;;;7.13;;
38379;SDS011;38377;47.418;18.882;2023-06-22T11:11:45;9.40;;;8.10;;
38379;SDS011;38377;47.418;18.882;2023-06-22T11:14:11;9.02;;;7.78;;
38379;SDS011;38377;47.418;18.882;2023-06-22T11:16:37;9.48;;;7.85;;
38379;SDS011;38377;47.418;18.882;2023-06-22T11:19:04;11.38;;;8.27;;
38379;SDS011;38377;47.418;18.882;2023-06-22T11:21:30;13.65;;;8.27;;
38379;SDS011;38377;47.418;18.882;2023-06-22T11:23:56;9.85;;;7.50;;
38379;SDS011;38377;47.418;18.882;2023-06-22T11:26:22;10.32;;;8.32;;
38379;SDS011;38377;47.418;18.882;2023-06-22T11:28:48;10.18;;;7.60;;
38379;SDS011;38377;47.418;18.882;2023-06-22T11:31:16;12.98;;;8.07;;
38379;SDS011;38377;47.418;18.882;2023-06-22T11:33:42;11.88;;;7.65;;
38379;SDS011;38377;47.418;18.882;2023-06-22T11:36:09;8.68;;;7.55;;
38379;SDS011;38377;47.418;18.882;2023-06-22T11:38:36;10.20;;;7.20;;
38379;SDS011;38377;47.418;18.882;2023-06-22T11:41:04;8.38;;;7.55;;
38379;SDS011;38377;47.418;18.882;2023-06-22T11:43:33;7.53;;;6.73;;
38379;SDS011;38377;47.418;18.882;2023-06-22T11:45:59;9.55;;;7.38;;
38379;SDS011;38377;47.418;18.882;2023-06-22T11:48:26;11.63;;;7.35;;
38379;SDS011;38377;47.418;18.882;2023-06-22T11:50:51;13.18;;;7.05;;
38379;SDS011;38377;47.418;18.882;2023-06-22T11:53:17;8.40;;;6.75;;
38379;SDS011;38377;47.418;18.882;2023-06-22T11:55:46;12.60;;;6.85;;
38379;SDS011;38377;47.418;18.882;2023-06-22T11:58:12;19.73;;;7.60;;
38379;SDS011;38377;47.418;18.882;2023-06-22T12:00:38;9.30;;;7.25;;
38379;SDS011;38377;47.418;18.882;2023-06-22T12:03:04;9.73;;;7.30;;
38379;SDS011;38377;47.418;18.882;2023-06-22T12:05:29;10.80;;;7.55;;
38379;SDS011;38377;47.418;18.882;2023-06-22T12:07:55;11.00;;;7.25;;
38379;SDS011;38377;47.418;18.882;2023-06-22T12:10:21;9.23;;;7.22;;
38379;SDS011;38377;47.418;18.882;2023-06-22T12:12:47;8.50;;;6.97;;
38379;SDS011;38377;47.418;18.882;2023-06-22T12:15:13;10.15;;;7.43;;
38379;SDS011;38377;47.418;18.882;2023-06-22T12:17:39;9.98;;;6.93;;
38379;SDS011;38377;47.418;18.882;2023-06-22T12:20:05;10.10;;;7.10;;
38379;SDS011;38377;47.418;18.882;2023-06-22T12:22:32;9.38;;;6.97;;
38379;SDS011;38377;47.418;18.882;2023-06-22T12:24:58;8.13;;;6.65;;
38379;SDS011;38377;47.418;18.882;2023-06-22T12:27:24;9.80;;;7.20;;
38379;SDS011;38377;47.418;18.882;2023-06-22T12:29:50;12.32;;;7.40;;
38379;SDS011;38377;47.418;18.882;2023-06-22T12:32:16;12.38;;;6.88;;
38379;SDS011;38377;47.418;18.882;2023-06-22T12:34:42;7.35;;;6.53;;
38379;SDS011;38377;47.418;18.882;2023-06-22T12:37:08;7.40;;;6.30;;
38379;SDS011;38377;47.418;18.882;2023-06-22T12:39:34;8.70;;;6.72;;
38379;SDS011;38377;47.418;18.882;2023-06-22T12:41:59;8.77;;;6.32;;
38379;SDS011;38377;47.418;18.882;2023-06-22T12:44:25;7.03;;;6.32;;
38379;SDS011;38377;47.418;18.882;2023-06-22T12:46:51;9.43;;;6.45;;
38379;SDS011;38377;47.418;18.882;2023-06-22T12:49:17;7.53;;;6.28;;
38379;SDS011;38377;47.418;18.882;2023-06-22T12:51:43;7.57;;;6.75;;
38379;SDS011;38377;47.418;18.882;2023-06-22T12:54:09;8.23;;;6.53;;
38379;SDS011;38377;47.418;18.882;2023-06-22T12:56:36;8.48;;;6.72;;
38379;SDS011;38377;47.418;18.882;2023-06-22T12:59:03;10.60;;;6.63;;
38379;SDS011;38377;47.418;18.882;2023-06-22T13:01:29;8.73;;;6.50;;
38379;SDS011;38377;47.418;18.882;2023-06-22T13:03:58;7.75;;;6.28;;
38379;SDS011;38377;47.418;18.882;2023-06-22T13:06:24;8.38;;;5.90;;
38379;SDS011;38377;47.418;18.882;2023-06-22T13:08:50;8.95;;;6.28;;
38379;SDS011;38377;47.418;18.882;2023-06-22T13:11:15;10.52;;;6.53;;
38379;SDS011;38377;47.418;18.882;2023-06-22T13:13:41;8.52;;;6.70;;
38379;SDS011;38377;47.418;18.882;2023-06-22T13:16:07;8.73;;;6.43;;
38379;SDS011;38377;47.418;18.882;2023-06-22T13:18:33;10.18;;;6.38;;
38379;SDS011;38377;47.418;18.882;2023-06-22T13:21:00;8.77;;;6.38;;
38379;SDS011;38377;47.418;18.882;2023-06-22T13:23:27;9.23;;;6.57;;
38379;SDS011;38377;47.418;18.882;2023-06-22T13:25:52;9.73;;;6.57;;
38379;SDS011;38377;47.418;18.882;2023-06-22T13:28:18;7.40;;;6.40;;
38379;SDS011;38377;47.418;18.882;2023-06-22T13:30:45;8.95;;;6.13;;
38379;SDS011;38377;47.418;18.882;2023-06-22T13:33:12;10.57;;;6.43;;
38379;SDS011;38377;47.418;18.882;2023-06-22T13:35:38;11.95;;;6.13;;
38379;SDS011;38377;47.418;18.882;2023-06-22T13:38:07;9.88;;;6.40;;
38379;SDS011;38377;47.418;18.882;2023-06-22T13:40:34;8.52;;;6.18;;
38379;SDS011;38377;47.418;18.882;2023-06-22T13:43:00;9.27;;;6.25;;
38379;SDS011;38377;47.418;18.882;2023-06-22T13:45:25;8.52;;;6.68;;
38379;SDS011;38377;47.418;18.882;2023-06-22T13:47:51;6.10;;;5.50;;
38379;SDS011;38377;47.418;18.882;2023-06-22T13:50:17;7.53;;;6.05;;
38379;SDS011;38377;47.418;18.882;2023-06-22T13:52:43;9.77;;;7.07;;
38379;SDS011;38377;47.418;18.882;2023-06-22T13:55:08;8.85;;;6.20;;
38379;SDS011;38377;47.418;18.882;2023-06-22T13:57:35;7.55;;;6.28;;
38379;SDS011;38377;47.418;18.882;2023-06-22T14:00:02;10.93;;;7.22;;
38379;SDS011;38377;47.418;18.882;2023-06-22T14:02:30;6.72;;;5.65;;
38379;SDS011;38377;47.418;18.882;2023-06-22T14:04:56;9.57;;;6.47;;
38379;SDS011;38377;47.418;18.882;2023-06-22T14:07:21;12.27;;;6.95;;
38379;SDS011;38377;47.418;18.882;2023-06-22T14:09:49;8.73;;;7.38;;
38379;SDS011;38377;47.418;18.882;2023-06-22T14:12:15;7.38;;;6.35;;
38379;SDS011;38377;47.418;18.882;2023-06-22T14:14:42;12.23;;;6.97;;
38379;SDS011;38377;47.418;18.882;2023-06-22T14:17:08;11.32;;;7.20;;
38379;SDS011;38377;47.418;18.882;2023-06-22T14:19:35;8.82;;;6.05;;
38379;SDS011;38377;47.418;18.882;2023-06-22T14:22:00;10.13;;;6.70;;
38379;SDS011;38377;47.418;18.882;2023-06-22T14:24:26;23.42;;;7.85;;
38379;SDS011;38377;47.418;18.882;2023-06-22T14:26:53;6.80;;;6.10;;
38379;SDS011;38377;47.418;18.882;2023-06-22T14:29:19;9.20;;;6.70;;
38379;SDS011;38377;47.418;18.882;2023-06-22T14:31:45;8.32;;;6.60;;